Time;durP1;ratioP1;P1;durP2;ratioP2;P2;SDS_P1;SDS_P2;PMS_P1;PMS_P2;Temp;Humidity;BMP_temperature;BMP_pressure;BME280_temperature;BME280_humidity;BME280_pressure;Samples;Min_cycle;Max_cycle;Signal;HPM_P1;HPM_P2
2022/09/25 00:01:01;;;;;;;6.22;5.30;;;;;;;12.56;100.00;99659.66;6226143;22;20015;-79
2022/09/25 00:03:28;;;;;;;7.85;4.97;;;;;;;12.57;100.00;99655.63;6249348;22;20322;-79
2022/09/25 00:06:00;;;;;;;7.55;5.53;;;;;;;12.60;100.00;99661.06;6250660;22;20023;-79
2022/09/25 00:08:26;;;;;;;5.85;5.00;;;;;;;12.60;100.00;99660.28;6251277;22;20368;-79
2022/09/25 00:10:51;;;;;;;5.90;4.90;;;;;;;12.55;100.00;99653.31;6250034;22;20030;-78
2022/09/25 00:13:19;;;;;;;8.75;5.35;;;;;;;12.56;100.00;99654.09;6250434;22;20008;-86
2022/09/25 00:15:55;;;;;;;8.48;5.38;;;;;;;12.59;100.00;99653.94;6251683;22;20090;-86
2022/09/25 00:21:10;;;;;;;7.90;5.18;;;;;;;12.59;100.00;99658.72;6254453;22;20015;-86
2022/09/25 00:23:36;;;;;;;7.82;5.47;;;;;;;12.59;100.00;99658.72;6251370;22;20441;-86
2022/09/25 00:26:04;;;;;;;8.18;5.68;;;;;;;12.57;100.00;99650.06;6224501;22;20017;-86
2022/09/25 00:28:30;;;;;;;7.05;5.85;;;;;;;12.62;100.00;99655.00;6225595;22;20019;-86
2022/09/25 00:30:56;;;;;;;6.93;4.85;;;;;;;12.65;100.00;99656.91;6252248;22;20056;-86
2022/09/25 00:33:22;;;;;;;10.07;5.53;;;;;;;12.64;100.00;99658.13;6225711;22;20014;-79
2022/09/25 00:35:47;;;;;;;6.78;5.40;;;;;;;12.60;100.00;99649.94;6276907;22;20015;-79
2022/09/25 00:38:13;;;;;;;7.40;5.65;;;;;;;12.61;100.00;99656.28;6251253;22;20429;-79
2022/09/25 00:40:38;;;;;;;7.72;5.53;;;;;;;12.63;100.00;99653.78;6248857;22;20030;-79
2022/09/25 00:43:11;;;;;;;8.20;5.90;;;;;;;12.63;100.00;99653.78;6248869;22;20007;-78
2022/09/25 00:45:37;;;;;;;9.13;6.47;;;;;;;12.57;100.00;99645.28;6249060;22;20056;-79
2022/09/25 00:48:05;;;;;;;9.27;6.10;;;;;;;12.54;100.00;99645.41;6249747;22;20016;-79
2022/09/25 00:50:48;;;;;;;6.65;5.10;;;;;;;12.63;100.00;99651.00;6249686;22;20019;-85
2022/09/25 00:53:18;;;;;;;7.85;5.63;;;;;;;12.53;100.00;99643.88;6274752;22;20011;-86
2022/09/25 00:55:44;;;;;;;6.38;5.25;;;;;;;12.54;100.00;99640.63;6250912;22;20019;-86
2022/09/25 00:58:11;;;;;;;6.57;5.68;;;;;;;12.53;100.00;99649.44;6275556;22;20034;-86
2022/09/25 01:00:36;;;;;;;7.88;5.57;;;;;;;12.51;100.00;99638.78;6249001;22;20011;-85
2022/09/25 01:03:04;;;;;;;7.22;5.70;;;;;;;12.36;100.00;99607.22;6280283;22;20351;-86
2022/09/25 01:05:35;;;;;;;6.32;5.15;;;;;;;12.53;100.00;99639.09;6335540;22;20010;-86
2022/09/25 01:08:03;;;;;;;9.23;5.65;;;;;;;12.53;100.00;99616.06;6307090;22;20007;-85
2022/09/25 01:10:29;;;;;;;6.57;5.70;;;;;;;12.45;100.00;99614.81;6308962;22;20416;-86
2022/09/25 01:12:56;;;;;;;6.03;5.20;;;;;;;12.49;100.00;99616.22;6336103;22;20029;-86
2022/09/25 01:15:56;;;;;;;8.25;5.40;;;;;;;12.47;100.00;99620.66;6306518;22;20007;-86
2022/09/25 01:18:35;;;;;;;6.75;5.32;;;;;;;12.48;100.00;99625.00;6299795;22;20015;-85
2022/09/25 01:21:43;;;;;;;8.98;5.80;;;;;;;12.46;100.00;99622.66;6335153;22;20091;-85
2022/09/25 01:24:33;;;;;;;8.38;5.78;;;;;;;12.46;100.00;99621.91;6185211;23;20021;-85
2022/09/25 01:27:23;;;;;;;7.00;5.03;;;;;;;12.55;100.00;99622.69;6211154;23;20032;-83
2022/09/25 01:30:13;;;;;;;9.65;5.10;;;;;;;12.58;100.00;99624.56;6313477;22;20072;-84
2022/09/25 01:32:59;;;;;;;6.45;5.25;;;;;;;12.61;100.00;99612.53;6307467;22;20033;-83
2022/09/25 01:35:30;;;;;;;7.07;4.97;;;;;;;12.63;100.00;99620.41;6309681;22;20010;-86
2022/09/25 01:38:09;;;;;;;7.07;5.05;;;;;;;12.65;100.00;99620.72;6336847;22;20039;-85
2022/09/25 01:40:42;;;;;;;8.88;5.30;;;;;;;12.66;100.00;99624.28;6309916;22;20011;-84
2022/09/25 01:43:22;;;;;;;6.77;5.30;;;;;;;12.62;100.00;99614.06;6307688;22;20015;-85
2022/09/25 01:46:03;;;;;;;7.25;5.22;;;;;;;12.64;100.00;99621.94;6320268;22;20006;-83
2022/09/25 01:48:30;;;;;;;6.00;5.10;;;;;;;12.60;100.00;99615.75;6336356;22;20006;-85
2022/09/25 01:51:05;;;;;;;7.10;5.20;;;;;;;12.62;100.00;99602.16;6311342;22;20011;-84
2022/09/25 01:53:39;;;;;;;6.72;5.38;;;;;;;12.61;100.00;99618.09;6364291;22;20011;-84
2022/09/25 01:56:10;;;;;;;;;;;;;;;12.63;100.00;99620.41;6339027;22;20014;-85
2022/09/25 01:58:40;;;;;;;6.18;5.28;;;;;;;12.64;100.00;99616.38;6336215;22;19910;-85
2022/09/25 02:01:15;;;;;;;6.90;5.25;;;;;;;12.59;100.00;99608.63;6336727;22;20018;-85
2022/09/25 02:03:46;;;;;;;6.55;5.63;;;;;;;12.56;100.00;99599.22;6335323;22;19998;-85
2022/09/25 02:06:16;;;;;;;6.40;5.10;;;;;;;12.61;100.00;99611.75;6336564;22;19995;-85
2022/09/25 02:08:48;;;;;;;8.25;5.80;;;;;;;12.58;100.00;99607.09;6363000;22;20030;-84
2022/09/25 02:11:14;;;;;;;6.47;5.40;;;;;;;12.58;100.00;99601.53;6337220;22;20018;-85
2022/09/25 02:14:00;;;;;;;6.78;5.80;;;;;;;12.62;100.00;99619.63;6309857;22;20018;-83
2022/09/25 02:16:34;;;;;;;8.82;5.47;;;;;;;12.64;100.00;99613.59;6335876;22;20447;-84
2022/09/25 02:21:49;;;;;;;6.07;5.32;;;;;;;12.58;100.00;99598.75;6336556;22;20333;-85
2022/09/25 02:24:24;;;;;;;7.75;5.20;;;;;;;12.60;100.00;99616.53;6335219;22;20007;-86
2022/09/25 02:26:50;;;;;;;6.70;5.40;;;;;;;12.57;100.00;99611.91;6337210;22;20018;-85
2022/09/25 02:29:16;;;;;;;6.15;5.55;;;;;;;12.63;100.00;99614.84;6308608;22;20002;-87
2022/09/25 02:31:49;;;;;;;5.88;5.25;;;;;;;12.63;100.00;99614.84;6309217;22;20049;-84
2022/09/25 02:34:14;;;;;;;6.50;5.10;;;;;;;12.60;100.00;99616.53;6336978;22;20049;-84
2022/09/25 02:36:41;;;;;;;8.32;5.38;;;;;;;12.60;100.00;99622.09;6336497;22;20348;-84
2022/09/25 02:39:08;;;;;;;7.90;5.55;;;;;;;12.56;100.00;99620.69;6309348;22;20086;-85
2022/09/25 02:41:42;;;;;;;6.47;5.43;;;;;;;12.53;100.00;99627.97;6335910;22;20011;-85
2022/09/25 02:44:30;;;;;;;7.10;5.65;;;;;;;12.52;100.00;99625.63;6335523;22;20011;-85
2022/09/25 02:47:01;;;;;;;6.70;5.40;;;;;;;12.50;100.00;99631.66;6310183;22;20010;-85
2022/09/25 02:49:58;;;;;;;7.10;5.78;;;;;;;12.47;100.00;99623.44;6336775;22;20089;-85
2022/09/25 02:52:40;;;;;;;5.82;5.22;;;;;;;12.44;100.00;99613.25;6308880;22;20045;-82
2022/09/25 02:55:11;;;;;;;6.63;5.53;;;;;;;12.40;100.00;99629.31;6309327;22;20038;-86
2022/09/25 02:58:26;;;;;;;8.45;5.55;;;;;;;12.41;100.00;99626.09;6309494;22;20014;-86
2022/09/25 03:00:54;;;;;;;7.38;5.22;;;;;;;12.39;100.00;99622.97;6317374;22;20115;-86
2022/09/25 03:03:22;;;;;;;6.07;5.00;;;;;;;12.41;100.00;99626.09;6337388;22;20014;-85
2022/09/25 03:05:48;;;;;;;6.70;5.07;;;;;;;12.37;100.00;99628.22;6306763;22;20014;-86
2022/09/25 03:10:59;;;;;;;6.10;5.38;;;;;;;12.37;100.00;99625.44;6314654;22;20014;-85
2022/09/25 03:13:30;;;;;;;6.70;5.20;;;;;;;12.37;100.00;99622.66;6334511;22;20011;-86
2022/09/25 03:16:01;;;;;;;5.78;5.20;;;;;;;12.37;100.00;99619.88;6309732;22;20675;-85
2022/09/25 03:18:27;;;;;;;5.22;4.72;;;;;;;12.38;100.00;99615.06;6336003;22;20014;-86
2022/09/25 03:20:53;;;;;;;5.57;4.53;;;;;;;12.41;100.00;99603.06;6336836;22;20085;-86
2022/09/25 03:23:19;;;;;;;6.00;4.93;;;;;;;12.36;100.00;99606.44;6335854;22;20077;-86
2022/09/25 03:25:45;;;;;;;8.27;4.80;;;;;;;12.46;100.00;99614.31;6284748;22;19999;-88
2022/09/25 03:28:11;;;;;;;7.88;4.43;;;;;;;12.47;100.00;99624.22;6336396;22;20100;-86
2022/09/25 03:30:39;;;;;;;6.60;4.95;;;;;;;12.47;100.00;99624.22;6337474;22;20010;-87
2022/09/25 03:33:09;;;;;;;5.57;4.47;;;;;;;12.45;100.00;99614.81;6338170;22;20042;-87
2022/09/25 03:35:38;;;;;;;7.07;5.10;;;;;;;12.46;100.00;99611.53;6336284;22;20015;-86
2022/09/25 03:38:06;;;;;;;7.93;4.60;;;;;;;12.47;100.00;99610.31;6337501;22;20017;-86
2022/09/25 03:40:32;;;;;;;6.22;4.85;;;;;;;12.40;100.00;99602.28;6337856;22;20014;-86
2022/09/25 03:42:58;;;;;;;6.30;4.88;;;;;;;12.42;100.00;99605.34;6337984;22;20010;-86
2022/09/25 03:45:23;;;;;;;5.88;4.38;;;;;;;12.45;100.00;99610.03;6336724;22;20018;-86
2022/09/25 03:47:49;;;;;;;5.85;4.80;;;;;;;12.45;100.00;99612.81;6337118;22;20040;-85
2022/09/25 03:50:14;;;;;;;6.15;4.25;;;;;;;12.44;100.00;99597.34;6338400;22;20010;-84
2022/09/25 03:52:40;;;;;;;6.35;4.10;;;;;;;12.51;100.00;99615.72;6338033;22;20015;-84
2022/09/25 03:55:06;;;;;;;7.47;4.22;;;;;;;12.55;100.00;99619.13;6337889;22;20017;-84
2022/09/25 03:57:32;;;;;;;5.82;4.50;;;;;;;12.55;100.00;99619.91;6337407;22;20009;-85
2022/09/25 04:00:00;;;;;;;7.00;4.40;;;;;;;12.56;100.00;99615.13;6338377;22;20011;-85
2022/09/25 04:02:27;;;;;;;5.60;4.15;;;;;;;12.56;100.00;99612.34;6336888;22;20087;-84
2022/09/25 04:04:53;;;;;;;5.47;4.55;;;;;;;12.58;100.00;99618.22;6337992;22;20017;-83
2022/09/25 04:07:23;;;;;;;5.32;3.78;;;;;;;12.54;100.00;99603.69;6335934;22;20018;-84
2022/09/25 04:09:49;;;;;;;4.97;4.25;;;;;;;12.62;100.00;99607.72;6335925;22;20479;-84
2022/09/25 04:12:15;;;;;;;6.03;3.83;;;;;;;12.65;100.00;99606.81;6335628;22;20082;-83
2022/09/25 04:14:41;;;;;;;6.65;3.88;;;;;;;12.67;100.00;99612.69;6335494;22;20375;-84
2022/09/25 04:17:08;;;;;;;4.47;3.70;;;;;;;12.68;100.00;99611.44;6335550;22;20011;-84
2022/09/25 04:19:34;;;;;;;6.40;4.00;;;;;;;12.59;100.00;99603.06;6334564;22;20009;-84
2022/09/25 04:21:59;;;;;;;5.78;4.05;;;;;;;12.55;100.00;99606.00;6336115;22;20010;-84
2022/09/25 04:27:09;;;;;;;4.93;4.13;;;;;;;12.51;100.00;99607.38;6336262;22;20698;-84
2022/09/25 04:29:34;;;;;;;5.18;3.70;;;;;;;12.57;100.00;99613.91;6335994;22;20007;-85
2022/09/25 04:34:45;;;;;;;5.45;4.20;;;;;;;12.56;100.00;99626.25;6335713;22;20021;-84
2022/09/25 04:37:10;;;;;;;6.50;4.18;;;;;;;12.52;100.00;99622.84;6336029;22;20007;-85
2022/09/25 04:39:36;;;;;;;5.10;4.03;;;;;;;12.55;100.00;99631.06;6336412;22;20007;-84
2022/09/25 04:42:01;;;;;;;5.07;3.90;;;;;;;12.53;100.00;99627.19;6336074;22;20011;-84
2022/09/25 04:44:27;;;;;;;6.22;4.07;;;;;;;12.53;100.00;99625.19;6334858;22;20484;-85
2022/09/25 04:46:52;;;;;;;6.40;4.30;;;;;;;12.53;100.00;99629.97;6309667;22;20006;-85
2022/09/25 04:49:18;;;;;;;5.03;3.80;;;;;;;12.46;100.00;99621.91;6335765;22;20041;-85
2022/09/25 04:51:43;;;;;;;5.95;4.30;;;;;;;12.54;100.00;99628.72;6337439;22;20007;-84
2022/09/25 04:54:09;;;;;;;5.65;3.80;;;;;;;12.47;100.00;99623.44;6337353;22;20561;-84
2022/09/25 04:56:34;;;;;;;5.30;3.60;;;;;;;12.52;100.00;99625.63;6337094;22;20006;-84
2022/09/25 04:59:00;;;;;;;6.85;3.83;;;;;;;12.54;100.00;99623.94;6337510;22;20007;-85
2022/09/25 05:01:25;;;;;;;7.25;4.20;;;;;;;12.56;100.00;99631.81;6336381;22;20021;-84
2022/09/25 05:03:52;;;;;;;5.00;3.83;;;;;;;12.49;100.00;99627.34;6335180;22;20010;-85
2022/09/25 05:06:18;;;;;;;4.97;3.72;;;;;;;12.49;100.00;99632.91;6335350;22;20018;-84
2022/09/25 05:08:46;;;;;;;5.57;4.13;;;;;;;12.49;100.00;99637.69;6309504;22;20015;-84
2022/09/25 05:11:13;;;;;;;4.72;4.00;;;;;;;12.47;100.00;99635.34;6336325;22;20641;-87
2022/09/25 05:13:39;;;;;;;7.70;3.78;;;;;;;12.46;100.00;99638.59;6337409;22;20015;-87
2022/09/25 05:16:05;;;;;;;5.85;4.30;;;;;;;12.37;100.00;99631.00;6337610;22;20069;-87
2022/09/25 05:18:31;;;;;;;5.47;4.00;;;;;;;12.39;100.00;99647.22;6335240;22;20424;-85
2022/09/25 05:20:56;;;;;;;6.38;3.92;;;;;;;12.38;100.00;99640.09;6336659;22;20326;-85
2022/09/25 05:23:22;;;;;;;6.68;3.85;;;;;;;12.36;100.00;99639.81;6337327;22;20011;-85
2022/09/25 05:25:52;;;;;;;4.80;3.80;;;;;;;12.35;100.00;99643.81;6342473;22;19998;-85
2022/09/25 05:28:18;;;;;;;5.88;3.72;;;;;;;12.44;100.00;99652.19;6342369;22;20014;-88
2022/09/25 05:30:43;;;;;;;4.60;3.58;;;;;;;12.55;100.00;99655.31;6342205;22;20082;-85
2022/09/25 05:33:10;;;;;;;6.65;3.75;;;;;;;12.53;100.00;99655.00;6340373;22;20022;-86
2022/09/25 05:35:35;;;;;;;4.40;3.60;;;;;;;12.49;100.00;99651.59;6340055;22;20332;-86
2022/09/25 05:38:01;;;;;;;5.72;3.05;;;;;;;12.55;100.00;99663.66;6340477;22;20011;-86
2022/09/25 05:40:26;;;;;;;6.40;3.47;;;;;;;12.50;100.00;99655.91;6341660;22;20498;-85
2022/09/25 05:42:53;;;;;;;6.05;3.60;;;;;;;12.49;100.00;99666.28;6314466;22;20007;-84
2022/09/25 05:45:20;;;;;;;5.43;3.13;;;;;;;12.51;100.00;99663.03;6340523;22;20070;-87
2022/09/25 05:47:46;;;;;;;5.40;3.22;;;;;;;12.51;100.00;99663.81;6312017;22;20018;-86
2022/09/25 05:50:13;;;;;;;3.72;2.85;;;;;;;12.48;100.00;99663.94;6339129;22;20011;-84
2022/09/25 05:52:39;;;;;;;5.03;3.00;;;;;;;12.55;100.00;99670.00;6340459;22;20037;-86
2022/09/25 05:55:05;;;;;;;4.88;3.30;;;;;;;12.52;100.00;99661.81;6339745;22;20014;-84
2022/09/25 05:57:34;;;;;;;5.32;3.00;;;;;;;12.52;100.00;99670.16;6312674;22;20007;-85
2022/09/25 06:00:04;;;;;;;5.57;3.30;;;;;;;12.52;100.00;99665.34;6287290;22;20079;-85
2022/09/25 06:02:37;;;;;;;4.43;3.22;;;;;;;12.57;100.00;99672.34;6313596;22;20345;-86
2022/09/25 06:05:03;;;;;;;5.68;2.80;;;;;;;12.56;100.00;99670.78;6340137;22;20017;-84
2022/09/25 06:07:28;;;;;;;4.53;3.00;;;;;;;12.57;100.00;99680.69;6288664;22;20371;-85
2022/09/25 06:09:54;;;;;;;3.85;2.90;;;;;;;12.64;100.00;99669.25;6342779;22;20085;-84
2022/09/25 06:12:19;;;;;;;4.72;2.70;;;;;;;12.61;100.00;99667.41;6340999;22;20032;-86
2022/09/25 06:14:45;;;;;;;3.30;2.60;;;;;;;12.61;100.00;99673.75;6312583;22;20021;-86
2022/09/25 06:17:11;;;;;;;4.20;2.72;;;;;;;12.66;100.00;99674.38;6314508;22;20038;-86
2022/09/25 06:19:36;;;;;;;3.88;2.90;;;;;;;12.63;100.00;99659.34;6343059;22;20007;-86
2022/09/25 06:22:02;;;;;;;4.30;3.40;;;;;;;12.60;100.00;99663.06;6337566;22;20021;-86
2022/09/25 06:24:28;;;;;;;5.95;3.30;;;;;;;12.58;100.00;99673.84;6338642;22;20075;-85
2022/09/25 06:26:53;;;;;;;4.93;2.92;;;;;;;12.54;100.00;99667.66;6311229;22;20011;-86
2022/09/25 06:29:19;;;;;;;3.70;3.30;;;;;;;12.55;100.00;99674.78;6338855;22;20010;-86
2022/09/25 06:31:45;;;;;;;3.85;2.85;;;;;;;12.48;100.00;99661.94;6338729;22;20009;-86
2022/09/25 06:34:11;;;;;;;5.55;3.40;;;;;;;12.47;100.00;99662.41;6337809;22;20094;-86
2022/09/25 06:36:37;;;;;;;6.10;3.38;;;;;;;12.46;100.00;99666.41;6337530;22;20437;-85
2022/09/25 06:39:03;;;;;;;5.30;3.45;;;;;;;12.49;100.00;99671.06;6335786;22;20015;-86
2022/09/25 06:41:28;;;;;;;3.30;2.95;;;;;;;12.46;100.00;99660.84;6338177;22;20013;-85
2022/09/25 06:43:54;;;;;;;6.10;3.15;;;;;;;12.52;100.00;99670.16;6338519;22;20017;-92
2022/09/25 06:46:19;;;;;;;4.63;3.50;;;;;;;12.48;100.00;99655.59;6311483;22;20497;-93
2022/09/25 06:48:56;;;;;;;4.93;3.47;;;;;;;12.51;100.00;99665.81;6312696;22;20042;-93
2022/09/25 06:51:21;;;;;;;4.38;3.13;;;;;;;12.50;100.00;99650.34;6314705;22;20014;-94
2022/09/25 06:53:47;;;;;;;5.93;3.45;;;;;;;12.61;100.00;99668.19;6340196;22;20009;-91
2022/09/25 06:56:12;;;;;;;4.95;3.20;;;;;;;12.69;100.00;99667.88;6342406;22;20018;-93
2022/09/25 06:58:38;;;;;;;5.05;2.97;;;;;;;12.70;100.00;99659.06;6341158;22;20420;-91
2022/09/25 07:01:09;;;;;;;5.70;2.97;;;;;;;12.74;100.00;99648.53;6338553;22;20011;-92
2022/09/25 07:03:43;;;;;;;4.93;2.95;;;;;;;12.82;100.00;99663.72;6337686;22;20034;-92
2022/09/25 07:06:14;;;;;;;4.95;3.17;;;;;;;12.81;100.00;99659.41;6338836;22;20022;-91
2022/09/25 07:08:40;;;;;;;4.45;2.83;;;;;;;12.90;100.00;99664.97;6342327;22;20010;-92
2022/09/25 07:11:06;;;;;;;3.50;2.83;;;;;;;12.94;100.00;99659.28;6310241;22;20007;-93
2022/09/25 07:13:33;;;;;;;6.22;3.22;;;;;;;12.99;100.00;99648.28;6342581;22;20084;-91
2022/09/25 07:16:06;;;;;;;4.30;3.10;;;;;;;13.02;100.00;99664.06;6343497;22;20018;-91
2022/09/25 07:18:33;;;;;;;4.47;3.10;;;;;;;13.06;100.00;99669.50;6317193;22;20018;-91
2022/09/25 07:21:03;;;;;;;4.05;2.85;;;;;;;13.07;100.00;99657.09;6343768;22;20037;-92
2022/09/25 07:23:30;;;;;;;3.90;2.70;;;;;;;13.09;100.00;99654.63;6344190;22;20011;-91
2022/09/25 07:25:57;;;;;;;3.50;2.90;;;;;;;13.12;100.00;99667.66;6317727;22;20026;-92
2022/09/25 07:28:22;;;;;;;5.18;2.97;;;;;;;13.13;100.00;99669.22;6314990;22;20004;-91
2022/09/25 07:30:48;;;;;;;5.68;3.05;;;;;;;13.18;100.00;99670.63;6339811;22;20060;-92
2022/09/25 07:33:15;;;;;;;4.55;3.35;;;;;;;13.19;100.00;99672.13;6338909;22;20018;-94
2022/09/25 07:35:40;;;;;;;3.78;3.10;;;;;;;13.23;100.00;99678.31;6288676;22;20022;-92
2022/09/25 07:38:06;;;;;;;6.00;3.30;;;;;;;13.17;100.00;99669.06;6337251;22;20015;-93
2022/09/25 07:40:34;;;;;;;4.05;3.10;;;;;;;13.14;100.00;99672.78;6309808;22;20031;-92
2022/09/25 07:43:00;;;;;;;4.05;2.70;;;;;;;13.12;100.00;99666.88;6311275;22;20013;-94
2022/09/25 07:45:27;;;;;;;4.70;3.28;;;;;;;13.20;100.00;99673.69;6338671;22;20017;-91
2022/09/25 07:48:01;;;;;;;4.53;3.00;;;;;;;13.14;100.00;99667.97;6312789;22;20349;-91
2022/09/25 07:50:28;;;;;;;4.25;3.30;;;;;;;12.97;100.00;99677.81;6339929;22;20007;-91
2022/09/25 07:52:54;;;;;;;6.00;2.80;;;;;;;12.96;100.00;99681.84;6337236;22;20015;-91
2022/09/25 07:55:20;;;;;;;4.50;3.10;;;;;;;12.92;100.00;99689.56;6340731;22;20448;-92
2022/09/25 07:57:45;;;;;;;4.70;3.00;;;;;;;12.85;100.00;99699.00;6347119;22;20064;-93
2022/09/25 08:00:12;;;;;;;3.65;2.92;;;;;;;12.82;100.00;99699.16;6324529;22;20010;-94
2022/09/25 08:02:37;;;;;;;5.28;3.35;;;;;;;12.80;100.00;99696.81;6353845;22;20325;-92
2022/09/25 08:05:03;;;;;;;3.78;3.28;;;;;;;12.80;100.00;99696.81;6322185;22;20105;-92
2022/09/25 08:07:29;;;;;;;4.47;3.80;;;;;;;12.75;100.00;99691.84;6348277;22;20034;-92
2022/09/25 08:09:54;;;;;;;4.47;3.33;;;;;;;12.79;100.00;99703.59;6348764;22;20003;-94
2022/09/25 08:12:24;;;;;;;4.15;3.38;;;;;;;12.85;100.00;99703.78;6298184;22;20010;-93
2022/09/25 08:14:50;;;;;;;3.80;3.08;;;;;;;12.84;100.00;99697.44;6349745;22;20037;-94
2022/09/25 08:17:16;;;;;;;3.92;3.53;;;;;;;12.87;100.00;99706.88;6350270;22;20002;-94
2022/09/25 08:19:41;;;;;;;3.70;3.20;;;;;;;12.85;100.00;99704.56;6349011;22;20010;-94
2022/09/25 08:22:07;;;;;;;4.45;3.10;;;;;;;12.91;100.00;99711.06;6338416;22;20014;-79
2022/09/25 08:24:36;;;;;;;5.57;3.80;;;;;;;13.02;100.00;99713.41;6282458;22;20042;-81
2022/09/25 08:27:03;;;;;;;4.40;3.30;;;;;;;13.02;100.00;99699.50;6337174;22;20015;-79
2022/09/25 08:29:29;;;;;;;4.20;3.28;;;;;;;13.15;100.00;99691.78;6337048;22;20015;-79
2022/09/25 08:31:55;;;;;;;4.13;3.55;;;;;;;13.18;100.00;99704.81;6308822;22;20006;-81
2022/09/25 08:34:21;;;;;;;5.38;3.90;;;;;;;13.24;100.00;99708.50;6308070;22;20166;-81
2022/09/25 08:36:49;;;;;;;5.85;3.97;;;;;;;13.27;100.00;99695.66;6335981;22;20035;-80
2022/09/25 08:39:16;;;;;;;4.82;3.63;;;;;;;13.39;100.00;99708.66;6336288;22;20060;-82
2022/09/25 08:41:44;;;;;;;5.78;3.90;;;;;;;13.45;100.00;99701.25;6336444;22;20013;-81
2022/09/25 08:44:28;;;;;;;5.53;3.85;;;;;;;13.46;100.00;99697.22;6336321;22;20010;-82
2022/09/25 08:49:49;;;;;;;4.85;3.70;;;;;;;13.50;100.00;99698.63;6335639;22;20018;-79
2022/09/25 08:52:17;;;;;;;5.10;4.00;;;;;;;13.56;100.00;99695.97;6335899;22;20018;-81
2022/09/25 08:54:43;;;;;;;3.92;3.53;;;;;;;13.64;100.00;99693.66;6307670;22;20021;-80
2022/09/25 08:57:18;;;;;;;4.57;3.35;;;;;;;13.80;100.00;99691.31;6308139;22;20007;-81
2022/09/25 08:59:48;;;;;;;4.68;3.80;;;;;;;13.83;100.00;99687.56;6308274;22;20071;-80
2022/09/25 09:02:40;;;;;;;5.30;4.00;;;;;;;13.92;100.00;99681.97;6308221;22;20011;-81
2022/09/25 09:05:16;;;;;;;6.50;3.55;;;;;;;13.98;100.00;99677.34;6335726;22;20124;-81
2022/09/25 09:07:44;;;;;;;4.20;3.50;;;;;;;14.03;100.00;99689.88;6335037;22;20837;-81
2022/09/25 09:10:31;;;;;;;5.57;3.50;;;;;;;13.98;100.00;99685.69;6335037;22;20340;-81
2022/09/25 09:13:25;;;;;;;3.95;3.25;;;;;;;13.89;100.00;99682.94;6335471;22;20033;-80
2022/09/25 09:16:00;;;;;;;6.95;3.67;;;;;;;13.90;100.00;99673.34;6307278;22;20056;-81
2022/09/25 09:18:28;;;;;;;4.35;3.45;;;;;;;13.92;100.00;99672.84;6334541;22;20014;-81
2022/09/25 09:20:55;;;;;;;5.90;3.13;;;;;;;13.93;100.00;99669.59;6336047;22;20011;-81
2022/09/25 09:23:42;;;;;;;4.60;3.53;;;;;;;14.05;100.00;99675.44;6306377;22;20092;-81
2022/09/25 09:26:20;;;;;;;5.13;3.53;;;;;;;14.09;100.00;99676.81;6271505;22;20106;-81
2022/09/25 09:28:48;;;;;;;5.72;2.90;;;;;;;14.19;100.00;99674.78;6334993;22;20010;-81
2022/09/25 09:31:20;;;;;;;4.05;3.08;;;;;;;14.23;100.00;99669.81;6336324;22;20035;-80
2022/09/25 09:33:52;;;;;;;4.93;3.15;;;;;;;14.40;100.00;99663.41;6335561;22;20097;-81
2022/09/25 09:36:35;;;;;;;5.45;3.28;;;;;;;14.55;100.00;99676.69;6335691;22;20082;-82
2022/09/25 09:39:23;;;;;;;4.75;3.38;;;;;;;14.57;100.00;99665.81;6336545;22;20423;-81
2022/09/25 09:42:03;;;;;;;3.88;3.42;;;;;;;14.74;100.00;99676.09;6336484;22;20030;-80
2022/09/25 09:44:32;;;;;;;5.50;4.18;;;;;;;14.84;100.00;99677.59;6335231;22;20025;-80
2022/09/25 09:47:38;;;;;;;4.75;3.60;;;;;;;14.97;100.00;99676.56;6335709;22;20011;-81
2022/09/25 09:50:37;;;;;;;5.55;3.90;;;;;;;15.01;100.00;99669.56;6308270;22;20029;-81
2022/09/25 09:53:09;;;;;;;4.38;3.45;;;;;;;15.08;100.00;99674.03;6335583;22;20027;-81
2022/09/25 09:55:41;;;;;;;4.60;3.55;;;;;;;15.13;100.00;99662.19;6308094;22;20379;-81
2022/09/25 09:58:18;;;;;;;6.13;3.55;;;;;;;15.25;100.00;99658.38;6336254;22;20026;-80
2022/09/25 10:00:46;;;;;;;4.78;3.38;;;;;;;15.34;100.00;99653.50;6307158;22;20088;-81
2022/09/25 10:03:17;;;;;;;4.85;3.30;;;;;;;15.37;100.00;99655.31;6335650;22;20010;-80
2022/09/25 10:05:53;;;;;;;4.70;3.45;;;;;;;15.47;100.00;99656.03;6307503;22;20015;-80
2022/09/25 10:08:18;;;;;;;6.60;3.40;;;;;;;15.48;100.00;99651.97;6335611;22;20017;-81
2022/09/25 10:10:53;;;;;;;4.90;3.50;;;;;;;15.35;100.00;99648.66;6335285;22;20014;-79
2022/09/25 10:13:27;;;;;;;5.63;3.60;;;;;;;15.40;100.00;99648.78;6282853;22;20536;-81
2022/09/25 10:16:00;;;;;;;;;;;;;;;15.31;100.00;99656.47;6338144;22;20562;-79
2022/09/25 10:18:30;;;;;;;7.32;4.30;;;;;;;15.23;100.00;99660.88;6337634;22;19914;-82
2022/09/25 10:21:04;;;;;;;5.88;4.03;;;;;;;15.08;100.00;99657.28;6309257;22;20007;-79
2022/09/25 10:23:47;;;;;;;4.53;3.70;;;;;;;15.00;100.00;99642.91;6284187;22;20470;-80
2022/09/25 10:26:36;;;;;;;5.65;3.88;;;;;;;14.84;100.00;99655.25;6337573;22;20011;-79
2022/09/25 10:29:03;;;;;;;5.05;3.78;;;;;;;14.77;100.00;99647.22;6308770;22;20377;-77
2022/09/25 10:31:35;;;;;;;5.53;4.10;;;;;;;14.80;100.00;99645.53;6336335;22;20053;-78
2022/09/25 10:34:12;;;;;;;5.07;4.32;;;;;;;14.95;100.00;99643.56;6307273;22;20014;-78
2022/09/25 10:36:44;;;;;;;5.75;4.20;;;;;;;14.94;100.00;99642.78;6334384;22;20049;-78
2022/09/25 10:39:33;;;;;;;6.45;3.90;;;;;;;14.99;100.00;99652.53;6307742;22;20154;-79
2022/09/25 10:42:00;;;;;;;4.93;4.05;;;;;;;14.86;100.00;99649.97;6309470;22;20081;-79
2022/09/25 10:44:32;;;;;;;5.70;4.40;;;;;;;14.90;100.00;99656.16;6306812;22;20010;-78
2022/09/25 10:50:25;;;;;;;5.47;4.28;;;;;;;14.91;100.00;99649.31;6289438;22;20409;-77
2022/09/25 10:52:58;;;;;;;5.60;4.53;;;;;;;14.90;100.00;99639.41;6334977;22;20382;-77
2022/09/25 10:55:35;;;;;;;4.75;4.05;;;;;;;14.79;100.00;99639.16;6334330;22;20013;-78
2022/09/25 10:58:08;;;;;;;4.47;3.70;;;;;;;14.71;100.00;99635.19;6305359;22;20017;-78
2022/09/25 11:00:42;;;;;;;5.25;4.15;;;;;;;14.64;100.00;99627.16;6333345;22;20038;-78
2022/09/25 11:03:19;;;;;;;5.40;4.25;;;;;;;14.54;100.00;99633.28;6309215;22;20010;-78
2022/09/25 11:05:50;;;;;;;5.68;4.05;;;;;;;14.65;100.00;99636.28;6308803;22;20337;-78
2022/09/25 11:08:15;;;;;;;4.93;4.32;;;;;;;14.62;100.00;99628.88;6309965;22;20015;-78
2022/09/25 11:10:55;;;;;;;4.88;4.03;;;;;;;14.72;100.00;99635.97;6337078;22;20007;-78
2022/09/25 11:13:54;;;;;;;4.63;4.10;;;;;;;14.61;100.00;99627.31;6308808;22;20019;-77
2022/09/25 11:16:20;;;;;;;7.10;4.80;;;;;;;14.62;100.00;99626.88;6280613;22;20026;-78
2022/09/25 11:18:48;;;;;;;6.68;4.40;;;;;;;14.59;100.00;99622.25;6309354;22;20344;-78
2022/09/25 11:21:17;;;;;;;4.18;3.78;;;;;;;14.68;100.00;99633.31;6308436;22;20374;-78
2022/09/25 11:24:07;;;;;;;5.15;3.97;;;;;;;14.69;100.00;99632.09;6308953;22;20202;-78
2022/09/25 11:26:41;;;;;;;4.65;4.07;;;;;;;14.70;100.00;99619.69;6319610;22;20043;-78
2022/09/25 11:29:44;;;;;;;4.75;4.22;;;;;;;14.70;100.00;99619.69;6306418;22;20044;-77
2022/09/25 11:32:19;;;;;;;5.05;4.07;;;;;;;14.72;100.00;99611.59;6260031;22;20432;-78
2022/09/25 11:35:16;;;;;;;5.97;4.10;;;;;;;14.72;100.00;99611.59;6336061;22;20056;-78
2022/09/25 11:37:43;;;;;;;5.25;4.20;;;;;;;14.81;100.00;99608.75;6306458;22;20072;-77
2022/09/25 11:43:38;;;;;;;6.38;4.47;;;;;;;15.02;100.00;99611.69;6309884;22;20075;-78
2022/09/25 11:46:42;;;;;;;6.07;4.07;;;;;;;14.91;100.00;99606.66;6280147;22;20033;-77
2022/09/25 11:49:23;;;;;;;4.85;4.03;;;;;;;14.97;100.00;99598.38;6333350;22;20083;-77
2022/09/25 11:52:10;;;;;;;5.05;4.03;;;;;;;15.04;100.00;99596.00;6304896;22;20799;-77
2022/09/25 11:55:21;;;;;;;5.50;4.30;;;;;;;14.92;100.00;99595.00;6333154;22;20036;-79
2022/09/25 11:57:58;;;;;;;4.75;3.72;;;;;;;15.02;100.00;99594.94;6332836;22;20006;-76
2022/09/25 12:00:43;;;;;;;6.38;3.97;;;;;;;15.04;100.00;99593.22;6304717;22;20019;-76
2022/09/25 12:03:50;;;;;;;4.97;4.32;;;;;;;15.05;100.00;99582.78;6332928;22;20011;-77
2022/09/25 12:06:21;;;;;;;5.88;4.50;;;;;;;15.06;100.00;99579.53;6289242;22;20037;-78
2022/09/25 12:09:16;;;;;;;5.43;3.88;;;;;;;15.06;100.00;99570.38;6305712;22;20019;-78